Time;durP1;ratioP1;P1;durP2;ratioP2;P2;SDS_P1;SDS_P2;PMS_P1;PMS_P2;Temp;Humidity;BMP_temperature;BMP_pressure;BME280_temperature;BME280_humidity;BME280_pressure;Samples;Min_cycle;Max_cycle;Signal;HPM_P1;HPM_P2
2023/05/24 06:50:46;;;;;;;11.10;5.30;;;;;;;28.55;26.99;99823.51;100889;1289;636481;-69
2023/05/24 06:53:14;;;;;;;10.80;4.80;;;;;;;29.67;26.04;99823.81;103256;1259;137213;-67
2023/05/24 06:55:42;;;;;;;11.00;5.50;;;;;;;30.62;25.29;99825.56;103530;1260;107751;-67
2023/05/24 06:58:13;;;;;;;8.30;5.60;;;;;;;31.39;24.62;99827.30;103503;1258;94650;-68
2023/05/24 07:00:41;;;;;;;13.50;5.10;;;;;;;31.71;24.17;99828.61;104291;1256;136698;-68
2023/05/24 07:03:09;;;;;;;9.70;5.10;;;;;;;31.66;24.00;99830.05;103792;1260;107109;-68
2023/05/24 07:05:37;;;;;;;10.80;5.00;;;;;;;32.00;23.92;99826.12;104518;1256;137123;-68
2023/05/24 07:08:04;;;;;;;9.10;4.90;;;;;;;32.61;23.67;99825.50;103692;1256;110644;-68
2023/05/24 07:10:32;;;;;;;10.80;4.80;;;;;;;33.87;22.98;99824.45;103293;1254;94530;-68
2023/05/24 07:13:00;;;;;;;20.90;5.20;;;;;;;35.12;21.80;99823.15;103321;1255;136589;-69
2023/05/24 07:15:27;;;;;;;15.30;5.30;;;;;;;35.42;21.19;99824.87;103984;1253;98872;-73
2023/05/24 07:17:55;;;;;;;10.90;4.70;;;;;;;35.30;20.79;99829.56;103243;1266;136874;-69
2023/05/24 07:20:23;;;;;;;12.70;4.90;;;;;;;34.60;20.98;99831.96;104471;1254;100349;-70
2023/05/24 07:22:52;;;;;;;11.80;4.90;;;;;;;33.81;21.46;99836.23;103337;1253;137356;-69
2023/05/24 07:25:20;;;;;;;9.80;4.90;;;;;;;33.10;21.84;99838.13;103382;1255;101067;-69
2023/05/24 07:27:47;;;;;;;16.90;5.00;;;;;;;32.53;22.34;99845.02;103513;1257;108147;-69
2023/05/24 07:30:16;;;;;;;11.80;5.30;;;;;;;32.32;22.54;99844.64;103322;1257;137164;-68
2023/05/24 07:32:58;;;;;;;7.40;4.70;;;;;;;31.75;22.76;99854.64;103455;1254;107833;-69
2023/05/24 07:35:27;;;;;;;13.00;5.00;;;;;;;32.00;22.67;99857.24;103544;1257;137135;-69
2023/05/24 07:37:55;;;;;;;9.60;4.60;;;;;;;32.83;22.69;99851.09;103674;1257;102048;-68
2023/05/24 07:40:22;;;;;;;11.30;5.00;;;;;;;33.25;22.21;99856.29;103416;1259;99234;-70
2023/05/24 07:42:50;;;;;;;11.40;5.30;;;;;;;33.25;22.32;99858.61;103299;1254;137521;-70
2023/05/24 07:45:17;;;;;;;10.20;5.30;;;;;;;33.04;22.24;99860.02;103918;1257;100046;-69
2023/05/24 07:47:44;;;;;;;11.30;5.20;;;;;;;32.59;22.16;99864.63;103279;1257;137850;-69
2023/05/24 07:50:13;;;;;;;14.30;5.30;;;;;;;32.48;22.48;99863.11;104385;1256;108471;-67
2023/05/24 07:52:40;;;;;;;9.60;4.90;;;;;;;32.57;22.42;99863.49;103786;1257;100443;-68
2023/05/24 07:55:08;;;;;;;13.90;4.90;;;;;;;32.22;22.95;99870.46;103820;1253;95152;-67
2023/05/24 07:57:36;;;;;;;9.80;4.80;;;;;;;32.21;23.00;99875.39;103762;1259;97909;-67
2023/05/24 08:00:13;;;;;;;10.00;5.10;;;;;;;31.78;23.21;99874.83;103568;1257;136976;-69
2023/05/24 08:02:41;;;;;;;10.70;4.70;;;;;;;31.32;23.73;99876.65;104582;1257;108602;-64
2023/05/24 08:05:10;;;;;;;14.30;5.40;;;;;;;31.15;24.01;99878.77;103160;1265;137414;-67
2023/05/24 08:07:38;;;;;;;11.80;5.30;;;;;;;31.48;23.88;99879.29;103501;1255;95077;-68
2023/05/24 08:10:09;;;;;;;22.40;5.10;;;;;;;31.83;23.72;99883.32;104423;1256;108123;-68
2023/05/24 08:12:36;;;;;;;13.90;4.80;;;;;;;31.89;23.75;99885.80;103865;1254;137370;-67
2023/05/24 08:15:04;;;;;;;13.20;5.00;;;;;;;32.50;23.36;99884.33;103324;1257;109141;-68
2023/05/24 08:17:32;;;;;;;11.50;4.90;;;;;;;33.23;22.88;99879.08;104484;1254;137247;-67
2023/05/24 08:19:59;;;;;;;10.70;4.60;;;;;;;33.68;22.54;99885.80;103724;1257;94977;-67
2023/05/24 08:22:27;;;;;;;11.90;5.10;;;;;;;34.02;22.22;99884.79;103466;1257;100351;-67
2023/05/24 08:24:55;;;;;;;16.90;5.00;;;;;;;33.96;22.00;99886.64;103225;1254;137197;-68
2023/05/24 08:27:22;;;;;;;11.90;4.20;;;;;;;34.06;22.26;99889.92;104026;1257;101264;-68
2023/05/24 08:29:49;;;;;;;15.20;4.80;;;;;;;34.24;22.29;99893.30;103225;1255;137482;-67
2023/05/24 08:32:17;;;;;;;7.90;5.20;;;;;;;33.86;21.71;99891.58;103843;1253;95189;-66
2023/05/24 08:34:45;;;;;;;13.50;4.40;;;;;;;33.26;22.14;99890.39;103203;1258;136904;-67
2023/05/24 08:37:14;;;;;;;13.80;5.50;;;;;;;32.99;22.71;99893.55;103157;1260;95224;-67
2023/05/24 08:39:42;;;;;;;11.20;4.90;;;;;;;33.17;22.72;99893.67;103511;1257;100914;-68
2023/05/24 08:42:10;;;;;;;19.90;5.40;;;;;;;33.06;22.51;99893.20;103177;1254;137335;-69
2023/05/24 08:44:41;;;;;;;12.50;4.80;;;;;;;32.93;22.92;99892.92;103334;1257;94982;-67
2023/05/24 08:47:10;;;;;;;12.80;5.00;;;;;;;33.12;23.20;99892.01;103223;1254;137381;-69
2023/05/24 08:49:39;;;;;;;16.40;5.00;;;;;;;33.74;23.30;99893.65;103803;1254;95100;-68
2023/05/24 08:52:07;;;;;;;10.70;5.10;;;;;;;34.39;22.75;99895.54;103290;1254;102967;-69
2023/05/24 08:54:35;;;;;;;12.10;5.00;;;;;;;34.75;22.22;99902.05;103239;1254;137176;-68
2023/05/24 08:57:02;;;;;;;13.80;5.10;;;;;;;35.03;21.98;99902.38;103771;1254;95009;-68
2023/05/24 08:59:30;;;;;;;9.30;4.80;;;;;;;34.98;21.77;99904.77;103073;1257;136913;-68
2023/05/24 09:01:59;;;;;;;16.00;5.30;;;;;;;34.54;21.59;99911.21;103310;1257;95179;-67
2023/05/24 09:04:29;;;;;;;7.70;4.20;;;;;;;33.72;21.83;99908.00;103410;1257;99971;-67
2023/05/24 09:06:58;;;;;;;11.80;5.00;;;;;;;33.20;22.24;99909.71;103215;1254;136590;-67
2023/05/24 09:09:28;;;;;;;10.60;4.70;;;;;;;32.50;22.70;99914.04;103342;1257;95198;-68
2023/05/24 09:12:00;;;;;;;22.30;5.10;;;;;;;31.86;23.05;99919.08;103257;1254;137519;-68
2023/05/24 09:14:29;;;;;;;15.10;5.00;;;;;;;31.29;23.59;99916.86;103469;1254;95228;-68
2023/05/24 09:16:56;;;;;;;17.70;5.50;;;;;;;30.76;24.04;99920.05;103438;1254;137048;-68
2023/05/24 09:19:26;;;;;;;14.50;5.50;;;;;;;30.14;24.40;99924.55;103361;1257;107367;-68
2023/05/24 09:21:54;;;;;;;14.90;5.20;;;;;;;29.40;25.21;99931.59;103447;1254;95118;-68
2023/05/24 09:24:23;;;;;;;7.90;4.90;;;;;;;29.02;25.73;99929.09;103349;1257;137007;-68
2023/05/24 09:26:52;;;;;;;10.70;5.80;;;;;;;28.76;26.38;99931.41;103450;1264;95211;-67
2023/05/24 09:29:24;;;;;;;12.80;5.50;;;;;;;28.58;26.62;99934.77;103664;1254;137341;-68
2023/05/24 09:31:55;;;;;;;15.40;5.10;;;;;;;28.37;27.06;99943.73;103651;1254;109809;-68
2023/05/24 09:34:23;;;;;;;14.50;5.80;;;;;;;28.09;27.22;99947.28;103293;1254;95110;-68
2023/05/24 09:36:52;;;;;;;11.40;5.20;;;;;;;27.86;27.65;99944.29;103395;1254;137098;-68
2023/05/24 09:39:21;;;;;;;8.10;4.90;;;;;;;27.65;27.90;99948.45;103577;1255;95221;-69
2023/05/24 09:41:56;;;;;;;9.50;5.50;;;;;;;27.47;28.13;99944.82;103885;1254;137028;-68
2023/05/24 09:44:26;;;;;;;9.50;5.00;;;;;;;27.46;28.63;99949.57;104631;1254;109459;-69
2023/05/24 09:46:54;;;;;;;15.40;5.80;;;;;;;27.46;28.91;99949.38;104511;1254;137562;-69
2023/05/24 09:49:22;;;;;;;12.20;5.50;;;;;;;27.53;28.94;99954.52;103673;1257;107700;-68
2023/05/24 09:51:52;;;;;;;9.80;5.70;;;;;;;27.60;29.03;99955.35;103285;1254;95058;-68
2023/05/24 09:54:20;;;;;;;14.90;5.90;;;;;;;27.60;29.18;99954.98;103726;1256;136963;-68
2023/05/24 09:56:48;;;;;;;10.50;5.60;;;;;;;27.55;29.36;99953.21;103411;1254;107614;-68
2023/05/24 09:59:16;;;;;;;17.20;6.30;;;;;;;27.41;29.52;99954.40;103282;1257;137645;-69
2023/05/24 10:01:43;;;;;;;19.80;6.40;;;;;;;27.18;29.70;99950.48;104022;1256;107652;-68
2023/05/24 10:04:11;;;;;;;11.00;6.00;;;;;;;26.99;29.98;99953.52;103641;1254;95025;-69
2023/05/24 10:06:42;;;;;;;17.60;6.30;;;;;;;26.87;30.24;99955.43;103630;1253;137792;-70
2023/05/24 10:09:09;;;;;;;16.20;5.90;;;;;;;26.80;30.30;99957.06;104374;1254;109539;-70
2023/05/24 10:11:37;;;;;;;20.80;6.60;;;;;;;26.74;30.33;99959.71;103907;1254;137467;-68
2023/05/24 10:14:07;;;;;;;19.30;6.40;;;;;;;26.69;30.52;99961.16;103379;1257;107726;-68
2023/05/24 10:16:35;;;;;;;25.50;6.60;;;;;;;26.63;30.56;99963.36;104010;1254;95012;-70
2023/05/24 10:19:02;;;;;;;18.80;6.80;;;;;;;26.59;30.89;99964.52;104239;1256;109185;-69
2023/05/24 10:21:31;;;;;;;17.40;6.40;;;;;;;26.58;31.04;99970.00;103266;1257;107591;-67
2023/05/24 10:24:02;;;;;;;19.30;6.70;;;;;;;26.55;30.83;99966.52;103519;1253;137403;-72
2023/05/24 10:26:32;;;;;;;23.00;6.50;;;;;;;26.43;31.14;99970.23;103835;1254;108173;-69
2023/05/24 10:29:06;;;;;;;20.50;6.60;;;;;;;26.40;31.23;99970.73;104474;1253;137466;-69
2023/05/24 10:31:37;;;;;;;18.00;6.70;;;;;;;26.44;31.30;99965.63;103627;1253;108937;-69
2023/05/24 10:34:06;;;;;;;19.00;6.70;;;;;;;26.47;31.23;99967.81;103845;1254;107548;-68
2023/05/24 10:36:35;;;;;;;15.00;6.70;;;;;;;26.51;31.55;99968.36;103353;1254;137478;-69
2023/05/24 10:39:03;;;;;;;12.40;6.40;;;;;;;26.53;31.29;99971.88;103933;1252;106965;-69
2023/05/24 10:41:38;;;;;;;19.70;7.10;;;;;;;26.54;31.30;99973.89;103597;1253;138060;-69
2023/05/24 10:44:12;;;;;;;14.90;6.30;;;;;;;26.52;31.11;99972.88;103289;1254;108809;-69
2023/05/24 10:47:12;;;;;;;15.00;6.30;;;;;;;26.47;31.03;99972.25;103683;1257;107827;-70
2023/05/24 10:49:47;;;;;;;15.60;7.10;;;;;;;26.52;31.14;99976.59;103294;1257;95115;-68
2023/05/24 10:52:15;;;;;;;12.10;6.30;;;;;;;26.59;31.35;99974.13;103235;1257;106066;-69
2023/05/24 10:55:01;;;;;;;11.90;6.60;;;;;;;26.66;31.33;99978.55;103880;1254;139327;-69
2023/05/24 10:57:32;;;;;;;10.30;6.60;;;;;;;26.68;31.46;99979.19;103324;1254;108494;-69
2023/05/24 11:00:19;;;;;;;15.50;6.40;;;;;;;26.73;31.33;99984.73;103326;1253;138086;-68
2023/05/24 11:03:07;;;;;;;16.10;6.40;;;;;;;26.82;31.27;99983.69;103406;1254;96328;-67
2023/05/24 11:05:49;;;;;;;12.40;6.30;;;;;;;26.84;31.27;99986.46;103901;1254;138861;-67
2023/05/24 11:08:21;;;;;;;18.10;7.10;;;;;;;26.92;31.41;99982.42;103584;1254;96420;-68
2023/05/24 11:10:48;;;;;;;14.30;6.00;;;;;;;26.97;31.35;99986.20;103453;1253;138062;-69
2023/05/24 11:13:18;;;;;;;15.60;6.70;;;;;;;27.03;31.41;99982.50;103718;1253;109468;-69
2023/05/24 11:15:52;;;;;;;14.60;6.50;;;;;;;27.06;31.38;99983.44;103498;1257;96463;-69
2023/05/24 11:18:23;;;;;;;12.60;6.10;;;;;;;27.08;31.13;99989.83;103174;1254;137429;-69
2023/05/24 11:20:52;;;;;;;16.70;6.80;;;;;;;27.07;31.41;99990.46;103943;1254;94392;-69
2023/05/24 11:23:19;;;;;;;17.50;6.50;;;;;;;27.12;31.49;99991.47;103173;1253;137547;-69
2023/05/24 11:25:48;;;;;;;15.60;6.00;;;;;;;27.15;31.43;99992.95;103356;1254;107664;-70
2023/05/24 11:28:15;;;;;;;14.90;6.70;;;;;;;27.14;31.69;99993.17;103324;1254;96753;-69
2023/05/24 11:30:44;;;;;;;12.50;6.80;;;;;;;27.09;31.48;99988.23;103114;1254;137491;-70
2023/05/24 11:33:19;;;;;;;12.20;6.60;;;;;;;27.08;31.49;99992.01;103465;1254;96427;-69
2023/05/24 11:35:47;;;;;;;13.20;6.10;;;;;;;27.07;31.78;99988.13;104413;1254;137563;-68
2023/05/24 11:38:15;;;;;;;12.40;6.70;;;;;;;27.08;31.76;99988.54;104752;1252;107692;-69
2023/05/24 11:40:44;;;;;;;15.70;6.30;;;;;;;27.08;31.64;99988.05;103658;1254;96475;-69
2023/05/24 11:43:14;;;;;;;15.70;6.40;;;;;;;27.16;31.64;99988.88;103555;1253;108105;-69
2023/05/24 11:45:44;;;;;;;14.20;7.00;;;;;;;27.19;31.83;99991.96;103394;1256;96417;-69
2023/05/24 11:48:11;;;;;;;17.00;6.90;;;;;;;27.27;31.98;99992.82;103820;1254;137904;-69
2023/05/24 11:50:43;;;;;;;17.70;6.70;;;;;;;27.47;32.22;99985.84;103147;1257;105959;-69
2023/05/24 11:53:14;;;;;;;15.30;6.50;;;;;;;27.80;32.08;99985.02;103610;1256;137866;-68
2023/05/24 11:55:42;;;;;;;15.80;6.50;;;;;;;28.13;31.93;99978.72;103306;1253;108341;-67
2023/05/24 11:58:17;;;;;;;11.00;6.70;;;;;;;28.39;31.51;99982.50;104273;1254;97103;-67
2023/05/24 12:00:47;;;;;;;14.90;6.20;;;;;;;28.64;31.15;99981.25;103491;1254;137485;-68
2023/05/24 12:03:14;;;;;;;12.40;6.40;;;;;;;28.86;30.76;99978.27;103544;1256;107871;-71
2023/05/24 12:05:42;;;;;;;15.50;6.10;;;;;;;28.94;30.73;99980.11;103575;1253;138242;-68
2023/05/24 12:08:11;;;;;;;12.30;6.20;;;;;;;29.05;30.66;99976.11;103619;1253;107882;-68
2023/05/24 12:10:41;;;;;;;11.50;6.60;;;;;;;29.08;30.75;99975.73;103701;1253;96514;-68
2023/05/24 12:13:22;;;;;;;11.60;5.90;;;;;;;29.09;30.42;99975.86;103630;1252;137021;-67
2023/05/24 12:15:51;;;;;;;15.60;5.80;;;;;;;29.08;30.37;99979.48;104028;1256;108332;-69
2023/05/24 12:18:23;;;;;;;13.50;5.80;;;;;;;29.09;30.34;99980.17;103974;1254;137420;-65
2023/05/24 12:20:52;;;;;;;10.00;5.80;;;;;;;29.06;30.07;99978.73;103297;1253;107330;-68
2023/05/24 12:23:21;;;;;;;10.00;5.70;;;;;;;29.05;29.93;99978.92;104023;1252;137698;-69
2023/05/24 12:25:49;;;;;;;15.10;5.70;;;;;;;28.98;29.82;99973.88;104048;1252;109932;-67
2023/05/24 12:28:20;;;;;;;15.70;5.80;;;;;;;28.94;30.08;99973.86;102844;1253;137607;-66
2023/05/24 12:30:49;;;;;;;14.70;5.70;;;;;;;28.99;30.10;99977.50;103278;1258;96530;-67
2023/05/24 12:33:18;;;;;;;9.60;5.60;;;;;;;28.97;30.41;99975.02;103570;1253;137872;-67
2023/05/24 12:35:46;;;;;;;9.20;5.30;;;;;;;29.02;30.27;99970.50;103241;1253;96431;-68
2023/05/24 12:38:14;;;;;;;13.10;5.80;;;;;;;29.05;30.14;99971.69;104011;1254;109403;-73
2023/05/24 12:40:43;;;;;;;21.50;5.50;;;;;;;29.04;30.26;99966.92;103278;1253;138032;-70
2023/05/24 12:43:13;;;;;;;13.40;6.30;;;;;;;29.36;30.43;99966.77;103464;1253;96524;-67
2023/05/24 12:45:40;;;;;;;17.00;6.10;;;;;;;29.73;29.59;99967.88;103545;1253;137790;-68
2023/05/24 12:48:08;;;;;;;11.70;5.70;;;;;;;29.52;29.39;99963.04;103894;1254;96485;-67
2023/05/24 12:50:35;;;;;;;15.00;6.10;;;;;;;29.49;29.59;99965.11;103998;1252;108238;-67
2023/05/24 12:53:03;;;;;;;10.80;6.60;;;;;;;29.45;29.64;99965.21;103598;1253;109163;-68
2023/05/24 12:55:30;;;;;;;14.60;5.90;;;;;;;29.40;29.70;99963.30;103630;1257;96465;-69
2023/05/24 12:58:00;;;;;;;11.90;6.40;;;;;;;29.36;29.68;99965.64;103511;1253;138381;-67
2023/05/24 13:00:30;;;;;;;12.60;6.50;;;;;;;29.20;29.63;99968.29;103336;1256;96368;-67
2023/05/24 13:02:58;;;;;;;10.90;6.10;;;;;;;29.15;30.05;99969.57;103276;1253;137518;-67
2023/05/24 13:05:28;;;;;;;10.80;5.90;;;;;;;29.17;30.06;99968.98;103627;1254;107379;-67
2023/05/24 13:07:57;;;;;;;15.20;6.50;;;;;;;29.17;30.03;99970.43;103616;1252;95068;-67
2023/05/24 13:10:26;;;;;;;11.10;6.10;;;;;;;29.09;29.78;99972.75;103468;1252;137496;-68
2023/05/24 13:12:53;;;;;;;20.30;6.10;;;;;;;29.04;30.02;99972.60;103547;1254;97124;-68
2023/05/24 13:15:22;;;;;;;9.40;6.70;;;;;;;29.02;30.03;99969.15;103148;1256;137543;-68
2023/05/24 13:17:50;;;;;;;9.10;7.00;;;;;;;28.96;30.24;99959.46;103341;1253;107675;-68
2023/05/24 13:20:20;;;;;;;11.80;6.90;;;;;;;28.88;30.62;99959.71;103779;1257;96525;-69
2023/05/24 13:22:48;;;;;;;12.60;7.20;;;;;;;28.83;30.94;99962.46;103274;1257;137459;-67
2023/05/24 13:25:15;;;;;;;12.00;7.60;;;;;;;28.82;30.68;99962.36;103582;1253;96430;-67
2023/05/24 13:27:43;;;;;;;13.50;7.20;;;;;;;28.79;30.81;99960.77;103316;1253;138871;-68
2023/05/24 13:30:12;;;;;;;12.10;6.80;;;;;;;28.76;30.75;99956.09;103402;1254;107687;-68
2023/05/24 13:32:40;;;;;;;12.10;7.00;;;;;;;28.73;30.88;99963.24;103438;1253;96433;-67
2023/05/24 13:35:09;;;;;;;15.40;7.40;;;;;;;28.67;31.00;99961.03;103707;1253;106991;-69
2023/05/24 13:37:36;;;;;;;13.60;6.70;;;;;;;28.67;31.10;99967.58;103467;1253;96438;-69
2023/05/24 13:40:04;;;;;;;10.30;7.00;;;;;;;28.60;31.18;99970.66;103237;1253;137856;-69
2023/05/24 13:42:32;;;;;;;11.30;6.40;;;;;;;28.50;31.16;99971.17;103363;1253;106725;-70
2023/05/24 13:44:59;;;;;;;12.40;7.00;;;;;;;28.37;31.22;99972.52;103282;1253;137602;-69
2023/05/24 13:47:26;;;;;;;10.80;6.30;;;;;;;28.24;31.43;99974.06;103206;1257;107995;-69
2023/05/24 13:50:07;;;;;;;12.30;7.30;;;;;;;28.15;32.00;99979.18;103187;1253;96539;-69
2023/05/24 13:52:35;;;;;;;17.20;7.50;;;;;;;28.09;32.00;99984.39;103306;1257;137403;-75
2023/05/24 13:55:04;;;;;;;19.00;6.90;;;;;;;28.01;32.21;99983.23;103297;1253;106771;-68
2023/05/24 13:57:31;;;;;;;12.30;7.40;;;;;;;27.93;32.32;99984.99;103522;1253;137546;-69
2023/05/24 14:00:19;;;;;;;11.80;6.40;;;;;;;27.85;32.44;99991.25;103286;1253;108370;-67
2023/05/24 14:02:46;;;;;;;16.60;8.10;;;;;;;27.77;33.18;99998.94;103485;1253;137782;-67
2023/05/24 14:05:14;;;;;;;17.80;7.90;;;;;;;27.59;33.90;99999.77;103319;1253;109928;-69
2023/05/24 14:07:53;;;;;;;10.60;6.80;;;;;;;27.38;34.28;100003.45;104045;1256;107549;-69
2023/05/24 14:10:20;;;;;;;9.80;6.80;;;;;;;27.22;34.83;100003.71;103989;1252;137901;-68
2023/05/24 14:12:48;;;;;;;14.30;7.10;;;;;;;27.07;34.78;100004.19;103281;1254;108303;-67
2023/05/24 14:15:29;;;;;;;14.60;7.10;;;;;;;26.94;35.51;100010.77;103275;1256;137741;-67
2023/05/24 14:17:57;;;;;;;10.10;6.90;;;;;;;26.81;35.71;100014.62;104115;1256;110632;-72
2023/05/24 14:20:25;;;;;;;11.30;7.80;;;;;;;26.76;36.77;100019.80;103337;1254;107704;-67
2023/05/24 14:22:52;;;;;;;11.70;7.20;;;;;;;26.68;37.33;100018.78;103221;1253;139120;-68
2023/05/24 14:25:22;;;;;;;11.90;7.10;;;;;;;26.60;36.60;100018.58;103377;1253;108264;-67
2023/05/24 14:27:49;;;;;;;11.40;6.70;;;;;;;26.53;36.60;100014.67;103231;1253;138130;-66
2023/05/24 14:30:16;;;;;;;12.70;7.50;;;;;;;26.48;37.06;100009.34;103364;1253;110453;-66
2023/05/24 14:32:44;;;;;;;11.80;7.20;;;;;;;26.44;37.38;100008.27;103240;1253;138022;-66
2023/05/24 14:35:12;;;;;;;13.00;6.60;;;;;;;26.42;37.04;100006.02;103378;1256;96537;-67
2023/05/24 14:37:39;;;;;;;10.70;6.80;;;;;;;26.41;36.93;100008.77;103297;1257;109673;-68
2023/05/24 14:40:10;;;;;;;11.60;6.20;;;;;;;26.44;37.54;100010.92;103461;1257;137673;-67
2023/05/24 14:42:37;;;;;;;13.80;6.60;;;;;;;26.47;37.99;100014.05;103493;1257;109867;-65
2023/05/24 14:45:06;;;;;;;128.20;15.40;;;;;;;26.47;38.57;100011.84;103179;1257;138413;-67
2023/05/24 14:47:34;;;;;;;136.30;18.40;;;;;;;26.44;38.98;100013.99;103515;1254;96562;-67
2023/05/24 14:50:01;;;;;;;37.60;10.30;;;;;;;26.40;39.10;100019.35;103375;1253;108675;-68
2023/05/24 14:52:31;;;;;;;51.70;10.30;;;;;;;26.38;39.35;100023.19;103193;1254;137967;-68
2023/05/24 14:54:58;;;;;;;47.80;10.70;;;;;;;26.33;39.29;100019.33;103409;1253;111733;-68
2023/05/24 14:57:26;;;;;;;97.30;12.50;;;;;;;26.28;38.98;100016.15;103151;1253;137924;-67
2023/05/24 14:59:53;;;;;;;51.30;10.10;;;;;;;26.24;39.10;100016.16;103344;1255;96450;-67
2023/05/24 15:02:21;;;;;;;15.90;6.90;;;;;;;26.19;39.31;100012.16;103538;1254;106810;-66
2023/05/24 15:04:48;;;;;;;14.40;6.10;;;;;;;26.13;38.49;100016.19;103235;1256;137763;-67
2023/05/24 15:07:16;;;;;;;12.70;5.80;;;;;;;26.04;37.23;100017.15;103390;1254;109862;-66
2023/05/24 15:09:43;;;;;;;8.90;5.70;;;;;;;25.92;36.91;100015.38;103261;1253;137851;-67
2023/05/24 15:12:11;;;;;;;13.20;6.30;;;;;;;25.80;37.43;100017.23;103365;1252;96397;-67
2023/05/24 15:14:38;;;;;;;13.40;6.20;;;;;;;25.68;37.92;100018.48;103440;1257;107695;-68
2023/05/24 15:17:06;;;;;;;10.70;5.40;;;;;;;25.54;36.63;100023.92;103293;1255;96556;-68
2023/05/24 15:19:34;;;;;;;11.40;5.50;;;;;;;25.35;36.41;100026.14;103371;1254;111080;-68
2023/05/24 15:22:01;;;;;;;10.40;5.50;;;;;;;25.22;36.01;100025.77;103210;1254;137881;-67
2023/05/24 15:24:29;;;;;;;13.30;5.60;;;;;;;25.13;36.11;100031.77;103304;1254;96459;-68
2023/05/24 15:26:56;;;;;;;9.40;5.90;;;;;;;25.08;36.33;100029.08;103159;1255;137650;-69
2023/05/24 15:29:23;;;;;;;17.10;6.20;;;;;;;25.03;36.42;100032.80;103332;1257;96364;-69
2023/05/24 15:31:51;;;;;;;17.00;8.40;;;;;;;25.01;37.34;100040.10;103331;1255;110754;-71
2023/05/24 15:34:18;;;;;;;23.00;10.20;;;;;;;24.88;39.84;100040.23;103056;1257;138703;-70
2023/05/24 15:36:50;;;;;;;28.90;12.10;;;;;;;24.70;41.21;100043.88;103257;1253;96497;-70
2023/05/24 15:39:18;;;;;;;21.00;11.50;;;;;;;24.54;42.34;100045.88;103065;1257;137738;-71
2023/05/24 15:41:45;;;;;;;20.20;12.50;;;;;;;24.39;43.52;100050.20;103046;1258;96518;-70
2023/05/24 15:44:13;;;;;;;22.50;12.40;;;;;;;24.20;44.09;100055.13;103226;1252;110020;-71
2023/05/24 15:46:42;;;;;;;23.00;11.70;;;;;;;24.05;44.67;100060.77;103116;1253;137793;-70
2023/05/24 15:49:09;;;;;;;19.20;13.30;;;;;;;23.95;45.14;100068.58;103187;1257;96546;-69
2023/05/24 15:51:37;;;;;;;16.80;13.00;;;;;;;23.85;45.34;100064.54;103153;1257;139071;-72
2023/05/24 15:54:07;;;;;;;22.60;12.20;;;;;;;23.71;45.64;100062.74;103206;1257;96435;-72
2023/05/24 15:56:34;;;;;;;20.50;12.80;;;;;;;23.61;45.88;100058.70;103244;1254;110240;-71
2023/05/24 15:59:02;;;;;;;20.20;12.60;;;;;;;23.52;46.06;100060.85;103034;1257;137792;-72
2023/05/24 16:01:29;;;;;;;14.90;11.50;;;;;;;23.48;46.38;100073.27;103220;1257;97428;-71
2023/05/24 16:03:56;;;;;;;20.80;11.90;;;;;;;23.42;46.69;100077.41;103113;1254;137738;-71
2023/05/24 16:06:24;;;;;;;18.00;13.10;;;;;;;23.34;46.86;100084.30;103268;1257;96438;-71
2023/05/24 16:08:51;;;;;;;16.00;11.80;;;;;;;23.28;47.05;100089.15;103162;1255;139049;-71
2023/05/24 16:11:19;;;;;;;19.60;11.50;;;;;;;23.18;47.48;100094.42;103220;1254;106631;-72
2023/05/24 16:13:48;;;;;;;16.10;11.40;;;;;;;23.11;47.55;100092.21;103158;1254;96584;-75
2023/05/24 16:16:16;;;;;;;26.30;12.20;;;;;;;23.05;47.76;100104.21;103004;1253;137908;-71
2023/05/24 16:18:43;;;;;;;17.70;11.90;;;;;;;22.98;48.12;100109.71;103748;1252;95078;-71
2023/05/24 16:21:10;;;;;;;16.10;12.00;;;;;;;22.87;48.25;100116.41;103290;1253;137834;-73
2023/05/24 16:23:37;;;;;;;19.40;11.40;;;;;;;22.76;48.41;100115.06;103338;1257;107974;-73
2023/05/24 16:26:05;;;;;;;22.90;11.70;;;;;;;22.66;48.64;100116.11;103293;1257;96453;-78
2023/05/24 16:28:32;;;;;;;14.90;12.00;;;;;;;22.58;49.00;100122.97;103149;1254;137574;-79
2023/05/24 16:31:01;;;;;;;15.80;11.70;;;;;;;22.54;49.07;100126.84;103181;1257;96558;-78
2023/05/24 16:33:30;;;;;;;17.90;11.60;;;;;;;22.50;49.49;100129.50;103351;1253;138517;-81
2023/05/24 16:35:59;;;;;;;22.00;12.20;;;;;;;22.37;49.63;100133.27;103231;1253;108741;-81
2023/05/24 16:38:29;;;;;;;15.40;12.20;;;;;;;22.25;49.95;100135.13;103287;1253;97045;-79
2023/05/24 16:40:57;;;;;;;21.00;12.70;;;;;;;22.11;50.06;100134.84;103779;1253;137564;-75
2023/05/24 16:43:25;;;;;;;19.00;12.60;;;;;;;21.99;50.19;100135.46;104653;1253;94627;-72
2023/05/24 16:45:53;;;;;;;20.30;12.40;;;;;;;21.88;50.35;100136.53;104562;1253;137671;-77
2023/05/24 16:48:26;;;;;;;14.00;12.50;;;;;;;21.82;50.78;100140.55;104732;1252;108836;-74
2023/05/24 16:50:55;;;;;;;18.90;13.00;;;;;;;21.75;50.80;100142.74;104558;1257;138181;-73
2023/05/24 16:53:24;;;;;;;18.90;12.70;;;;;;;21.65;51.04;100145.28;104641;1254;107735;-62
2023/05/24 16:55:54;;;;;;;19.90;13.10;;;;;;;21.57;51.40;100149.25;104639;1253;94521;-63
2023/05/24 16:58:22;;;;;;;19.90;13.10;;;;;;;21.45;51.64;100145.08;104551;1252;138046;-63
2023/05/24 17:00:52;;;;;;;13.40;9.70;;;;;;;21.33;51.86;100149.19;103798;1253;107300;-71
2023/05/24 17:03:26;;;;;;;22.00;12.50;;;;;;;21.22;52.05;100150.81;103360;1257;137832;-67
2023/05/24 17:05:57;;;;;;;19.20;12.00;;;;;;;21.03;52.11;100149.45;103603;1253;108164;-74
2023/05/24 17:08:29;;;;;;;21.00;12.30;;;;;;;20.93;52.56;100151.63;103286;1257;96643;-76
2023/05/24 17:10:57;;;;;;;27.30;12.40;;;;;;;20.85;52.61;100145.91;103210;1257;137401;-75
2023/05/24 17:13:26;;;;;;;25.10;13.80;;;;;;;20.78;52.94;100145.52;103293;1257;110134;-65
2023/05/24 17:15:55;;;;;;;17.00;12.80;;;;;;;20.73;53.20;100144.86;103237;1253;137903;-62
2023/05/24 17:18:27;;;;;;;20.80;11.50;;;;;;;20.67;53.30;100147.95;103677;1256;107810;-64
2023/05/24 17:20:55;;;;;;;16.70;11.30;;;;;;;20.59;53.40;100149.29;103259;1257;137973;-66
2023/05/24 17:23:24;;;;;;;15.70;12.20;;;;;;;20.55;53.88;100153.14;103285;1253;109465;-68
2023/05/24 17:25:52;;;;;;;14.20;12.40;;;;;;;20.46;54.16;100153.94;103257;1253;107112;-65
2023/05/24 17:28:20;;;;;;;18.50;12.20;;;;;;;20.38;54.19;100156.63;103215;1254;137985;-66
2023/05/24 17:30:47;;;;;;;17.40;12.50;;;;;;;20.31;54.37;100160.82;103349;1254;106970;-67
2023/05/24 17:33:14;;;;;;;18.60;13.20;;;;;;;20.27;54.61;100154.77;104052;1252;138170;-66
2023/05/24 17:35:42;;;;;;;18.70;12.90;;;;;;;20.24;54.58;100159.27;103594;1253;109697;-67
2023/05/24 17:38:09;;;;;;;15.70;12.40;;;;;;;20.17;54.71;100162.02;103307;1257;108066;-64
2023/05/24 17:40:36;;;;;;;17.20;13.00;;;;;;;20.15;54.87;100165.77;103276;1256;138625;-61
2023/05/24 17:43:05;;;;;;;13.90;12.30;;;;;;;20.12;55.11;100170.36;103371;1253;108380;-66
2023/05/24 17:45:34;;;;;;;17.90;12.00;;;;;;;20.10;54.97;100170.66;103243;1253;138436;-65
2023/05/24 17:48:01;;;;;;;19.50;12.30;;;;;;;20.07;55.29;100172.89;103742;1252;109474;-64
2023/05/24 17:50:28;;;;;;;22.40;14.40;;;;;;;20.00;55.19;100169.48;103446;1254;108128;-66
2023/05/24 17:52:57;;;;;;;22.60;13.80;;;;;;;19.95;55.15;100175.48;103179;1257;137827;-63
2023/05/24 17:55:25;;;;;;;15.20;12.50;;;;;;;19.88;55.56;100173.84;103435;1254;107997;-65
2023/05/24 17:57:53;;;;;;;16.40;13.30;;;;;;;19.82;55.45;100178.05;103797;1254;138093;-66
2023/05/24 18:00:22;;;;;;;19.80;12.50;;;;;;;19.71;55.70;100176.70;103466;1253;110452;-65
2023/05/24 18:02:49;;;;;;;20.40;13.30;;;;;;;19.64;56.09;100186.76;103513;1255;106572;-66
2023/05/24 18:05:18;;;;;;;17.30;12.30;;;;;;;19.56;56.07;100184.48;103471;1252;137829;-65